Time;durP1;ratioP1;P1;durP2;ratioP2;P2;SDS_P1;SDS_P2;PMS_P1;PMS_P2;Temp;Humidity;BMP_temperature;BMP_pressure;BME280_temperature;BME280_humidity;BME280_pressure;Samples;Min_cycle;Max_cycle;Signal;HPM_P1;HPM_P2
2023/09/06 00:01:30;;;;;;;3.00;2.70;;;19.80;99.90;;;;;;5000016;28;20199;-70
2023/09/06 00:03:57;;;;;;;2.88;2.67;;;19.80;99.90;;;;;;4998900;28;20898;-70
2023/09/06 00:06:24;;;;;;;3.00;2.70;;;19.80;99.90;;;;;;5003176;28;20296;-70
2023/09/06 00:08:54;;;;;;;2.90;2.70;;;19.80;99.90;;;;;;4996901;28;20363;-70
2023/09/06 00:11:21;;;;;;;2.92;2.72;;;19.80;99.90;;;;;;5000046;28;20263;-70
2023/09/06 00:13:48;;;;;;;4.07;3.05;;;19.80;99.90;;;;;;5001416;28;20212;-71
2023/09/06 00:16:16;;;;;;;3.00;2.80;;;19.70;99.90;;;;;;5001359;28;20287;-70
2023/09/06 00:18:43;;;;;;;2.75;2.55;;;19.70;99.90;;;;;;5001115;28;20688;-70
2023/09/06 00:21:10;;;;;;;3.33;3.03;;;19.70;99.90;;;;;;5000463;28;20287;-70
2023/09/06 00:23:38;;;;;;;3.03;2.72;;;19.70;99.90;;;;;;4984325;28;20851;-70
2023/09/06 00:26:07;;;;;;;2.85;2.65;;;19.70;99.90;;;;;;4983737;28;20299;-70
2023/09/06 00:28:34;;;;;;;3.00;2.80;;;19.70;99.90;;;;;;5002311;28;20299;-70
2023/09/06 00:31:01;;;;;;;3.22;2.92;;;19.80;99.90;;;;;;4997250;28;20258;-70
2023/09/06 00:33:33;;;;;;;2.90;2.70;;;19.80;99.90;;;;;;5001059;28;20227;-70
2023/09/06 00:36:01;;;;;;;3.28;3.08;;;19.80;99.90;;;;;;4999235;28;20208;-70
2023/09/06 00:38:28;;;;;;;3.92;3.10;;;19.90;99.90;;;;;;5001213;28;20258;-70
2023/09/06 00:40:55;;;;;;;3.72;2.75;;;19.90;99.90;;;;;;4998105;28;20207;-70
2023/09/06 00:43:23;;;;;;;3.15;2.95;;;20.00;99.90;;;;;;5001046;28;20223;-70
2023/09/06 00:45:51;;;;;;;3.10;2.80;;;20.00;99.90;;;;;;4997634;28;20278;-70
2023/09/06 00:48:22;;;;;;;2.78;2.58;;;20.00;99.90;;;;;;4994463;28;20222;-70
2023/09/06 00:50:51;;;;;;;3.35;3.05;;;19.90;99.90;;;;;;5001828;28;20236;-70
2023/09/06 00:53:19;;;;;;;2.72;2.53;;;19.90;99.90;;;;;;4999570;28;20288;-70
2023/09/06 00:55:48;;;;;;;2.78;2.55;;;19.80;99.90;;;;;;5002756;28;20273;-70
2023/09/06 00:58:16;;;;;;;2.95;2.58;;;19.80;99.90;;;;;;5002188;28;20196;-70
2023/09/06 01:00:46;;;;;;;2.90;2.70;;;19.80;99.90;;;;;;5004092;28;20208;-71
2023/09/06 01:03:13;;;;;;;2.78;2.58;;;19.80;99.90;;;;;;4985408;28;20863;-71
2023/09/06 01:05:47;;;;;;;3.13;2.88;;;19.80;99.90;;;;;;5002877;28;20302;-71
2023/09/06 01:08:20;;;;;;;3.05;2.75;;;19.80;99.90;;;;;;5005742;28;20220;-71
2023/09/06 01:10:47;;;;;;;3.20;2.90;;;19.70;99.90;;;;;;5004830;28;20208;-71
2023/09/06 01:13:14;;;;;;;3.08;2.75;;;19.70;99.90;;;;;;5003594;28;20266;-71
2023/09/06 01:15:46;;;;;;;2.72;2.53;;;19.70;99.90;;;;;;5004443;28;20260;-71
2023/09/06 01:18:14;;;;;;;3.08;2.78;;;19.80;99.90;;;;;;4983638;28;20239;-70
2023/09/06 01:20:44;;;;;;;2.65;2.45;;;19.70;99.90;;;;;;5004408;28;20208;-71
2023/09/06 01:23:32;;;;;;;2.55;2.35;;;19.70;99.90;;;;;;4999761;28;20256;-70
2023/09/06 01:26:00;;;;;;;2.67;2.47;;;19.70;99.90;;;;;;5003544;28;20208;-70
2023/09/06 01:28:27;;;;;;;2.97;2.67;;;19.50;99.90;;;;;;5005935;28;20248;-71
2023/09/06 01:30:54;;;;;;;3.50;3.20;;;19.40;99.90;;;;;;4985029;28;20255;-70
2023/09/06 01:33:22;;;;;;;4.60;3.20;;;19.30;99.90;;;;;;5001567;28;21156;-70
2023/09/06 01:35:49;;;;;;;4.07;3.42;;;19.20;99.90;;;;;;5002593;28;20290;-70
2023/09/06 01:38:16;;;;;;;3.55;3.20;;;19.00;99.90;;;;;;5005110;28;20203;-70
2023/09/06 01:40:43;;;;;;;4.20;3.47;;;18.80;99.90;;;;;;4989923;28;20230;-70
2023/09/06 01:43:12;;;;;;;3.42;3.13;;;18.60;99.90;;;;;;5000884;28;20240;-70
2023/09/06 01:45:45;;;;;;;3.92;3.33;;;18.60;99.90;;;;;;5001021;28;20641;-70
2023/09/06 01:48:13;;;;;;;3.35;3.10;;;18.50;99.90;;;;;;4982990;28;20250;-70
2023/09/06 01:50:41;;;;;;;3.10;2.90;;;18.60;99.90;;;;;;5004009;28;20231;-70
2023/09/06 01:53:08;;;;;;;3.00;2.78;;;18.60;99.90;;;;;;5001355;28;20720;-70
2023/09/06 01:55:35;;;;;;;2.78;2.58;;;18.70;99.90;;;;;;5007319;28;20227;-70
2023/09/06 01:58:03;;;;;;;3.65;3.30;;;18.80;99.90;;;;;;4997705;28;20882;-70
2023/09/06 02:00:34;;;;;;;3.72;2.90;;;18.90;99.90;;;;;;4997924;28;20263;-70
2023/09/06 02:03:01;;;;;;;3.53;3.22;;;18.90;99.90;;;;;;5000958;28;20821;-70
2023/09/06 02:05:30;;;;;;;3.13;2.83;;;18.80;99.90;;;;;;5003054;28;20302;-70
2023/09/06 02:07:57;;;;;;;2.90;2.70;;;18.80;99.90;;;;;;5001592;28;20220;-70
2023/09/06 02:10:24;;;;;;;3.30;3.00;;;18.80;99.90;;;;;;5004844;28;20206;-70
2023/09/06 02:12:51;;;;;;;3.17;2.97;;;18.80;99.90;;;;;;5004115;28;20671;-70
2023/09/06 02:15:18;;;;;;;3.33;3.13;;;18.90;99.90;;;;;;5002781;28;20312;-70
2023/09/06 02:17:47;;;;;;;3.47;3.17;;;18.90;99.90;;;;;;5003149;28;20196;-70
2023/09/06 02:20:17;;;;;;;3.30;3.05;;;18.80;99.90;;;;;;5002138;28;20201;-70
2023/09/06 02:22:46;;;;;;;3.22;2.92;;;18.70;99.90;;;;;;5007123;28;20208;-70
2023/09/06 02:25:15;;;;;;;3.13;2.85;;;18.70;99.90;;;;;;5002991;28;20597;-70
2023/09/06 02:27:42;;;;;;;3.28;2.97;;;18.70;99.90;;;;;;5000663;28;20458;-70
2023/09/06 02:30:10;;;;;;;3.55;3.25;;;18.80;99.90;;;;;;4998160;28;20698;-70
2023/09/06 02:32:37;;;;;;;2.85;2.65;;;18.80;99.90;;;;;;5003662;28;20227;-70
2023/09/06 02:35:07;;;;;;;3.00;2.80;;;18.70;99.90;;;;;;5005510;28;20308;-70
2023/09/06 02:37:34;;;;;;;2.95;2.75;;;18.70;99.90;;;;;;5002351;28;20485;-70
2023/09/06 02:40:06;;;;;;;2.95;2.75;;;18.70;99.90;;;;;;5004823;28;20236;-70
2023/09/06 02:42:36;;;;;;;3.13;2.83;;;18.60;99.90;;;;;;4997864;28;20197;-70
2023/09/06 02:45:05;;;;;;;2.83;2.63;;;18.60;99.90;;;;;;5004154;28;20220;-70
2023/09/06 02:47:34;;;;;;;3.13;2.92;;;18.60;99.90;;;;;;4999512;28;20196;-70
2023/09/06 02:50:05;;;;;;;3.28;2.97;;;18.60;99.90;;;;;;5002125;28;20271;-70
2023/09/06 02:52:35;;;;;;;3.50;3.03;;;18.60;99.90;;;;;;5000344;28;20780;-70
2023/09/06 02:55:05;;;;;;;3.13;2.85;;;18.60;99.90;;;;;;5000024;28;20308;-70
2023/09/06 02:57:34;;;;;;;3.45;3.20;;;18.60;99.90;;;;;;4977246;28;20822;-70
2023/09/06 03:00:18;;;;;;;3.45;3.15;;;18.70;99.90;;;;;;5001580;28;20204;-70
2023/09/06 03:02:46;;;;;;;3.25;3.00;;;18.70;99.90;;;;;;5004425;28;20410;-70
2023/09/06 03:05:17;;;;;;;2.72;2.53;;;18.70;99.90;;;;;;5001782;28;20306;-70
2023/09/06 03:07:48;;;;;;;3.35;3.05;;;18.60;99.90;;;;;;5012310;28;20506;-70
2023/09/06 03:10:16;;;;;;;3.35;3.05;;;18.50;99.90;;;;;;5001802;28;20208;-70
2023/09/06 03:12:43;;;;;;;3.38;3.08;;;18.50;99.90;;;;;;5003265;28;20295;-70
2023/09/06 03:15:13;;;;;;;4.18;3.72;;;18.50;99.90;;;;;;5002127;28;20255;-70
2023/09/06 03:17:40;;;;;;;3.33;3.13;;;18.30;99.90;;;;;;5001797;28;20201;-70
2023/09/06 03:20:19;;;;;;;3.28;3.08;;;18.20;99.90;;;;;;5001569;28;20295;-71
2023/09/06 03:22:50;;;;;;;3.22;2.97;;;18.20;99.90;;;;;;4996950;28;20940;-70
2023/09/06 03:25:17;;;;;;;3.42;3.22;;;18.20;99.90;;;;;;5001292;28;20278;-71
2023/09/06 03:27:45;;;;;;;3.42;3.13;;;18.20;99.90;;;;;;4999748;28;20732;-70
2023/09/06 03:30:15;;;;;;;3.50;3.20;;;18.30;99.90;;;;;;4996994;28;20290;-71
2023/09/06 03:32:43;;;;;;;3.45;3.10;;;18.30;99.90;;;;;;4998574;28;20304;-71
2023/09/06 03:35:11;;;;;;;3.28;3.08;;;18.30;99.90;;;;;;5000263;28;20229;-71
2023/09/06 03:37:41;;;;;;;3.13;2.88;;;18.30;99.90;;;;;;5002285;28;20223;-70
2023/09/06 03:40:25;;;;;;;2.75;2.55;;;18.20;99.90;;;;;;4999402;28;20192;-70
2023/09/06 03:42:55;;;;;;;3.13;2.83;;;18.20;99.90;;;;;;4996913;28;20914;-69
2023/09/06 03:45:24;;;;;;;3.20;2.63;;;18.20;99.90;;;;;;4982099;28;20243;-69
2023/09/06 03:47:52;;;;;;;3.00;2.80;;;18.20;99.90;;;;;;5002796;28;20265;-70
2023/09/06 03:50:21;;;;;;;3.47;3.03;;;18.20;99.90;;;;;;5000186;28;20768;-70
2023/09/06 03:52:48;;;;;;;3.78;3.33;;;18.10;99.90;;;;;;4980501;28;20642;-70
2023/09/06 03:55:17;;;;;;;3.22;2.92;;;18.10;99.90;;;;;;4999740;28;20256;-70
2023/09/06 03:57:44;;;;;;;3.63;3.33;;;18.10;99.90;;;;;;5003060;28;20667;-70
2023/09/06 04:00:24;;;;;;;3.25;3.00;;;18.10;99.90;;;;;;4986296;28;20758;-70
2023/09/06 04:02:54;;;;;;;3.35;2.78;;;18.10;99.90;;;;;;5000539;28;20206;-70
2023/09/06 04:05:26;;;;;;;3.22;2.97;;;18.10;99.90;;;;;;5004769;28;20221;-69
2023/09/06 04:07:56;;;;;;;4.45;3.17;;;18.10;99.90;;;;;;5001631;28;20718;-69
2023/09/06 04:10:27;;;;;;;3.13;2.70;;;18.10;99.90;;;;;;4998640;28;20211;-70
2023/09/06 04:12:55;;;;;;;3.00;2.80;;;18.00;99.90;;;;;;5004210;28;20203;-70
2023/09/06 04:15:23;;;;;;;3.10;2.90;;;18.00;99.90;;;;;;4999595;28;20220;-69
2023/09/06 04:17:58;;;;;;;3.00;2.80;;;17.90;99.90;;;;;;4999309;28;20208;-69
2023/09/06 04:20:27;;;;;;;3.35;3.13;;;17.90;99.90;;;;;;4980729;28;20265;-70
2023/09/06 04:22:55;;;;;;;3.22;2.92;;;17.80;99.90;;;;;;4998495;28;20789;-69
2023/09/06 04:25:22;;;;;;;3.42;3.10;;;17.80;99.90;;;;;;4983160;28;20216;-70
2023/09/06 04:27:54;;;;;;;3.35;2.78;;;17.80;99.90;;;;;;4998671;28;20215;-70
2023/09/06 04:30:25;;;;;;;4.50;3.10;;;18.00;99.90;;;;;;4996140;28;20769;-69
2023/09/06 04:32:53;;;;;;;3.42;3.15;;;18.00;99.90;;;;;;4998810;28;20627;-69
2023/09/06 04:35:22;;;;;;;3.50;3.20;;;17.90;99.90;;;;;;4997152;28;20220;-69
2023/09/06 04:37:49;;;;;;;3.33;3.03;;;17.90;99.90;;;;;;5000964;28;20204;-70
2023/09/06 04:40:19;;;;;;;3.17;2.88;;;17.80;99.90;;;;;;4998788;28;20283;-69
2023/09/06 04:42:46;;;;;;;3.42;3.13;;;17.80;99.90;;;;;;5002797;28;20200;-69
2023/09/06 04:45:14;;;;;;;3.28;2.97;;;17.80;99.90;;;;;;5001937;28;20219;-70
2023/09/06 04:47:43;;;;;;;3.13;2.92;;;17.80;99.90;;;;;;5002443;28;20201;-70
2023/09/06 04:50:12;;;;;;;3.60;3.30;;;17.80;99.90;;;;;;5001721;28;20227;-70
2023/09/06 04:52:44;;;;;;;4.95;4.55;;;17.80;99.90;;;;;;4999782;28;20201;-70
2023/09/06 04:55:13;;;;;;;3.65;3.35;;;17.70;99.90;;;;;;4999763;28;20221;-70
2023/09/06 04:57:40;;;;;;;3.85;3.55;;;17.50;99.90;;;;;;4999444;28;20269;-70
2023/09/06 05:00:17;;;;;;;4.47;4.07;;;17.40;99.90;;;;;;5002306;28;20284;-70
2023/09/06 05:02:47;;;;;;;4.13;3.72;;;17.40;99.90;;;;;;5000695;28;20253;-70
2023/09/06 05:05:14;;;;;;;4.53;4.00;;;17.50;99.90;;;;;;5000806;28;20327;-70
2023/09/06 05:07:41;;;;;;;3.90;3.53;;;17.50;99.90;;;;;;5000679;28;20209;-70
2023/09/06 05:10:10;;;;;;;4.00;3.70;;;17.50;99.90;;;;;;5005558;28;20219;-70
2023/09/06 05:12:37;;;;;;;4.10;3.70;;;17.50;99.90;;;;;;5000627;28;20204;-70
2023/09/06 05:15:06;;;;;;;3.90;3.50;;;17.50;99.90;;;;;;5000330;28;20221;-70
2023/09/06 05:17:33;;;;;;;3.45;3.15;;;17.60;99.90;;;;;;4996466;28;20200;-70
2023/09/06 05:20:27;;;;;;;3.60;3.30;;;17.90;99.90;;;;;;4996184;28;20193;-70
2023/09/06 05:22:55;;;;;;;3.63;3.33;;;18.20;99.90;;;;;;4988322;28;20211;-70
2023/09/06 05:25:22;;;;;;;3.53;3.22;;;18.60;99.90;;;;;;4997680;28;20742;-70
2023/09/06 05:27:49;;;;;;;3.97;3.67;;;18.80;99.90;;;;;;4997644;28;20212;-70
2023/09/06 05:30:17;;;;;;;4.88;4.38;;;18.90;99.90;;;;;;4996730;28;20689;-70
2023/09/06 05:32:44;;;;;;;4.70;4.13;;;18.90;99.90;;;;;;4999000;28;20278;-71
2023/09/06 05:35:11;;;;;;;5.05;4.65;;;18.90;99.90;;;;;;4999219;28;20249;-71
2023/09/06 05:37:41;;;;;;;4.40;4.00;;;18.80;99.90;;;;;;5000249;28;20226;-71
2023/09/06 05:40:11;;;;;;;5.32;3.65;;;18.90;99.90;;;;;;4998685;28;20221;-70
2023/09/06 05:42:38;;;;;;;4.22;3.92;;;19.10;99.90;;;;;;5001467;28;20203;-71
2023/09/06 05:45:06;;;;;;;4.78;4.32;;;19.20;99.90;;;;;;5002240;28;20347;-70
2023/09/06 05:47:35;;;;;;;5.20;4.22;;;19.20;99.90;;;;;;5000922;28;20280;-70
2023/09/06 05:50:02;;;;;;;4.45;4.05;;;19.40;99.90;;;;;;5000667;28;20219;-70
2023/09/06 05:52:29;;;;;;;3.80;3.50;;;19.70;99.90;;;;;;4999116;28;20200;-70
2023/09/06 05:54:58;;;;;;;4.00;3.70;;;20.00;99.90;;;;;;4984124;28;20303;-70
2023/09/06 05:57:25;;;;;;;4.90;3.65;;;20.30;99.90;;;;;;4994440;28;20267;-70
2023/09/06 05:59:52;;;;;;;3.55;3.05;;;20.50;99.90;;;;;;4983249;28;20212;-70
2023/09/06 06:02:19;;;;;;;3.83;3.53;;;20.80;99.90;;;;;;4997987;28;20294;-70
2023/09/06 06:04:47;;;;;;;3.58;3.28;;;21.10;99.90;;;;;;5000489;28;20262;-70
2023/09/06 06:07:16;;;;;;;3.47;3.08;;;21.20;99.90;;;;;;5001494;28;20302;-70
2023/09/06 06:09:44;;;;;;;3.50;3.20;;;21.40;99.90;;;;;;4985480;28;20764;-70
2023/09/06 06:12:13;;;;;;;3.92;3.60;;;21.70;99.90;;;;;;4999100;28;20957;-70
2023/09/06 06:14:41;;;;;;;3.70;3.40;;;21.90;99.90;;;;;;4997105;28;20228;-71
2023/09/06 06:17:11;;;;;;;3.70;3.40;;;22.20;99.90;;;;;;4999976;28;20747;-71
2023/09/06 06:19:38;;;;;;;5.00;3.30;;;22.40;99.90;;;;;;4981510;28;20204;-73
2023/09/06 06:22:05;;;;;;;3.25;3.05;;;22.60;99.90;;;;;;4997243;28;20270;-71
2023/09/06 06:24:35;;;;;;;4.40;3.40;;;22.60;99.90;;;;;;5002538;28;20267;-71
2023/09/06 06:27:04;;;;;;;4.07;3.67;;;22.50;99.90;;;;;;4997220;28;20215;-71
2023/09/06 06:29:32;;;;;;;4.70;3.75;;;22.50;99.90;;;;;;4997351;28;20224;-70
2023/09/06 06:31:59;;;;;;;4.63;4.03;;;22.60;99.90;;;;;;4998609;28;20286;-70
2023/09/06 06:34:26;;;;;;;4.95;4.20;;;22.60;99.90;;;;;;4998141;28;20317;-70
2023/09/06 06:36:53;;;;;;;4.03;3.63;;;22.50;99.90;;;;;;4990869;28;20752;-70
2023/09/06 06:39:20;;;;;;;4.03;3.65;;;22.20;99.90;;;;;;5003447;28;20312;-70
2023/09/06 06:41:47;;;;;;;4.15;3.75;;;22.00;99.90;;;;;;5001701;28;20291;-70
2023/09/06 06:44:14;;;;;;;4.32;3.92;;;21.90;99.90;;;;;;4998484;28;20229;-70
2023/09/06 06:46:43;;;;;;;5.07;4.30;;;21.80;99.90;;;;;;4992612;28;21325;-70
2023/09/06 06:49:10;;;;;;;6.30;4.10;;;21.60;99.90;;;;;;4997042;28;20337;-71
2023/09/06 06:51:39;;;;;;;3.90;3.60;;;21.90;99.90;;;;;;4999193;28;20293;-71
2023/09/06 06:54:08;;;;;;;4.22;3.83;;;22.30;99.90;;;;;;5000576;28;20299;-71
2023/09/06 06:56:36;;;;;;;3.78;3.20;;;22.70;99.90;;;;;;4996518;28;20200;-71
2023/09/06 06:59:03;;;;;;;4.40;4.00;;;23.00;99.90;;;;;;4988465;28;20222;-71
2023/09/06 07:01:31;;;;;;;3.95;3.65;;;23.30;99.90;;;;;;4982261;28;20887;-71
2023/09/06 07:03:59;;;;;;;4.20;3.90;;;23.70;99.90;;;;;;5000259;28;20278;-71
2023/09/06 07:06:27;;;;;;;4.05;3.63;;;23.60;99.90;;;;;;4997740;28;20614;-71
2023/09/06 07:08:56;;;;;;;3.92;3.63;;;23.70;99.90;;;;;;5000352;28;20216;-71
2023/09/06 07:11:23;;;;;;;4.60;3.95;;;23.80;99.90;;;;;;4977542;28;20228;-71
2023/09/06 07:13:52;;;;;;;3.45;3.15;;;23.70;99.90;;;;;;4997480;28;20220;-71
2023/09/06 07:16:21;;;;;;;4.38;3.97;;;23.80;99.90;;;;;;4997649;28;20197;-71
2023/09/06 07:18:48;;;;;;;6.25;4.60;;;23.90;99.90;;;;;;5001590;28;20283;-71
2023/09/06 07:21:18;;;;;;;5.70;4.53;;;23.70;99.90;;;;;;5000132;28;20760;-71
2023/09/06 07:23:45;;;;;;;4.95;3.97;;;23.70;99.90;;;;;;4999467;28;20262;-71
2023/09/06 07:26:12;;;;;;;4.45;4.10;;;23.50;99.90;;;;;;4995810;28;20254;-71
2023/09/06 07:28:41;;;;;;;7.00;4.22;;;23.30;99.90;;;;;;4999231;28;20228;-71
2023/09/06 07:31:08;;;;;;;4.75;4.35;;;23.20;99.90;;;;;;5002648;28;20309;-71
2023/09/06 07:33:36;;;;;;;4.32;3.92;;;23.20;99.90;;;;;;4998270;28;20240;-71
2023/09/06 07:36:04;;;;;;;5.95;3.95;;;23.30;99.90;;;;;;4999478;28;20293;-70
2023/09/06 07:38:32;;;;;;;4.50;3.78;;;23.30;99.90;;;;;;4997551;28;20215;-71
2023/09/06 07:41:00;;;;;;;4.28;3.88;;;23.60;99.90;;;;;;5001728;28;20288;-71
2023/09/06 07:43:28;;;;;;;5.00;3.80;;;23.80;99.90;;;;;;4999161;28;20292;-71
2023/09/06 07:45:57;;;;;;;7.57;4.88;;;24.00;99.90;;;;;;4995476;28;20267;-70
2023/09/06 07:48:26;;;;;;;4.20;3.78;;;24.20;99.90;;;;;;5000772;28;20200;-70
2023/09/06 07:50:53;;;;;;;4.80;3.75;;;24.20;99.90;;;;;;4998572;28;20307;-71
2023/09/06 07:53:20;;;;;;;5.43;3.97;;;24.20;99.90;;;;;;5000061;28;20196;-71
2023/09/06 07:55:48;;;;;;;4.70;3.95;;;24.00;99.90;;;;;;5001565;28;20238;-70
2023/09/06 07:58:16;;;;;;;4.20;3.80;;;23.90;99.90;;;;;;5001871;28;20279;-71
2023/09/06 08:00:43;;;;;;;4.95;4.45;;;24.00;99.90;;;;;;4996351;28;20300;-70
2023/09/06 08:03:11;;;;;;;4.72;4.22;;;24.00;99.90;;;;;;4995839;28;20228;-71
2023/09/06 08:05:38;;;;;;;5.32;4.68;;;23.80;99.90;;;;;;4997712;28;20270;-71
2023/09/06 08:08:08;;;;;;;4.63;4.10;;;23.80;99.90;;;;;;4982250;28;20830;-71
2023/09/06 08:10:36;;;;;;;5.65;4.30;;;23.90;99.90;;;;;;4998453;28;20220;-71
2023/09/06 08:13:05;;;;;;;4.85;4.38;;;23.90;99.90;;;;;;4997422;28;20209;-71
2023/09/06 08:15:32;;;;;;;5.10;4.60;;;24.20;99.90;;;;;;4999512;28;20307;-71
2023/09/06 08:18:00;;;;;;;4.38;3.97;;;24.20;99.90;;;;;;4998243;28;20225;-70
2023/09/06 08:20:27;;;;;;;4.43;3.97;;;24.40;99.90;;;;;;4996418;28;20491;-70
2023/09/06 08:22:54;;;;;;;5.18;4.70;;;24.50;99.90;;;;;;5001749;28;20204;-70
2023/09/06 08:25:21;;;;;;;4.32;3.97;;;24.40;99.90;;;;;;5000807;28;20311;-71
2023/09/06 08:27:50;;;;;;;4.70;4.30;;;24.30;99.90;;;;;;4999163;28;20212;-74
2023/09/06 08:30:21;;;;;;;4.43;3.90;;;24.20;99.90;;;;;;4978619;28;20243;-72
2023/09/06 08:32:51;;;;;;;4.50;4.10;;;24.20;99.90;;;;;;4998244;28;20204;-73
2023/09/06 08:35:19;;;;;;;4.45;4.07;;;24.30;99.90;;;;;;4999885;28;20456;-72
2023/09/06 08:37:46;;;;;;;4.65;4.25;;;24.30;99.90;;;;;;4998641;28;20192;-74
2023/09/06 08:40:15;;;;;;;3.97;3.67;;;24.40;99.90;;;;;;4995624;28;20196;-73
2023/09/06 08:42:45;;;;;;;4.50;4.10;;;24.60;99.90;;;;;;4998621;28;20205;-74
2023/09/06 08:45:14;;;;;;;4.30;4.00;;;25.10;99.90;;;;;;5000453;28;20298;-73
2023/09/06 08:47:42;;;;;;;3.72;3.38;;;25.20;99.90;;;;;;4999005;28;20208;-73
2023/09/06 08:50:11;;;;;;;4.30;3.90;;;25.00;99.90;;;;;;4995022;28;20270;-73
2023/09/06 08:52:41;;;;;;;4.50;4.10;;;25.10;99.90;;;;;;4982113;28;20745;-72
2023/09/06 08:55:10;;;;;;;4.97;4.10;;;25.10;99.90;;;;;;5000078;28;20231;-73
2023/09/06 08:57:38;;;;;;;5.35;4.22;;;25.10;99.90;;;;;;4964197;28;20205;-73
2023/09/06 09:00:09;;;;;;;4.43;4.03;;;25.10;99.90;;;;;;4992182;28;20278;-72
2023/09/06 09:02:36;;;;;;;4.05;3.70;;;25.20;99.90;;;;;;4994121;28;20208;-73
2023/09/06 09:05:05;;;;;;;3.97;3.63;;;25.50;99.90;;;;;;4998624;28;20294;-72
2023/09/06 09:07:33;;;;;;;4.03;3.72;;;25.50;99.90;;;;;;4993891;28;20939;-73
2023/09/06 09:10:02;;;;;;;4.35;4.05;;;25.70;99.90;;;;;;4978275;28;20702;-72
2023/09/06 09:12:31;;;;;;;6.30;3.90;;;25.60;99.90;;;;;;4988976;28;20299;-73
2023/09/06 09:14:59;;;;;;;4.10;3.72;;;25.60;99.90;;;;;;4991538;28;20244;-73
2023/09/06 09:17:27;;;;;;;4.22;3.83;;;25.80;99.90;;;;;;4996702;28;21010;-73
2023/09/06 09:19:56;;;;;;;3.92;3.50;;;26.10;99.90;;;;;;4998705;28;20236;-72
2023/09/06 09:22:26;;;;;;;4.38;4.00;;;26.20;99.90;;;;;;4995026;28;20200;-73
2023/09/06 09:24:59;;;;;;;4.82;4.18;;;26.10;99.90;;;;;;4997790;28;22091;-73
2023/09/06 09:27:28;;;;;;;4.65;4.00;;;25.80;99.90;;;;;;4996459;28;20201;-73
2023/09/06 09:29:56;;;;;;;3.80;3.50;;;25.90;99.90;;;;;;4982522;28;20781;-72
2023/09/06 09:32:23;;;;;;;5.50;3.90;;;26.00;99.90;;;;;;4997830;28;20247;-73
2023/09/06 09:34:51;;;;;;;4.10;3.70;;;26.30;99.90;;;;;;4995080;28;20890;-73
2023/09/06 09:37:18;;;;;;;4.32;3.92;;;26.50;99.90;;;;;;4996496;28;20228;-72
2023/09/06 09:39:47;;;;;;;12.63;4.80;;;26.60;99.90;;;;;;4997827;28;20746;-73
2023/09/06 09:42:15;;;;;;;4.00;3.65;;;26.70;99.90;;;;;;4999889;28;20204;-73
2023/09/06 09:44:42;;;;;;;4.50;4.10;;;26.80;99.90;;;;;;4991329;28;20310;-72
2023/09/06 09:47:14;;;;;;;3.90;3.50;;;26.90;99.90;;;;;;4965370;28;20215;-73
2023/09/06 09:49:43;;;;;;;7.35;4.43;;;27.00;99.90;;;;;;4985115;28;20193;-73
2023/09/06 09:52:12;;;;;;;5.20;4.18;;;26.90;99.90;;;;;;4984786;28;20270;-73
2023/09/06 09:54:42;;;;;;;4.10;3.75;;;26.90;99.90;;;;;;4985262;28;20236;-72
2023/09/06 09:57:11;;;;;;;3.63;3.33;;;26.90;99.90;;;;;;4981307;28;20258;-73
2023/09/06 09:59:40;;;;;;;3.92;3.45;;;27.00;99.90;;;;;;4994821;28;20393;-73
2023/09/06 10:02:15;;;;;;;3.97;3.55;;;27.00;99.90;;;;;;4999402;28;20200;-73
2023/09/06 10:04:43;;;;;;;5.68;4.03;;;26.90;99.90;;;;;;4999487;28;20242;-73
2023/09/06 10:07:14;;;;;;;5.18;3.40;;;26.90;99.90;;;;;;4995055;28;20298;-72
2023/09/06 10:09:42;;;;;;;3.95;3.38;;;27.10;99.90;;;;;;4998352;28;20543;-72
2023/09/06 10:12:12;;;;;;;3.42;3.20;;;27.20;99.90;;;;;;4977260;28;20228;-72
2023/09/06 10:14:43;;;;;;;3.53;3.22;;;27.20;99.90;;;;;;4977728;28;20232;-73
2023/09/06 10:17:12;;;;;;;3.95;3.58;;;27.10;99.90;;;;;;4983067;28;20248;-72
2023/09/06 10:19:40;;;;;;;3.35;3.05;;;27.30;99.90;;;;;;5001093;28;20200;-73
2023/09/06 10:22:11;;;;;;;3.40;3.10;;;27.70;99.90;;;;;;4998871;28;20897;-73
2023/09/06 10:24:39;;;;;;;4.15;3.63;;;27.90;99.90;;;;;;4998994;28;20250;-73
2023/09/06 10:27:13;;;;;;;3.90;3.50;;;27.80;99.90;;;;;;5001573;28;20631;-72
2023/09/06 10:29:54;;;;;;;3.97;3.60;;;27.70;99.90;;;;;;4997109;28;20199;-75
2023/09/06 10:32:22;;;;;;;3.65;3.40;;;27.60;99.90;;;;;;4994770;28;20243;-74
2023/09/06 10:35:24;;;;;;;7.55;3.97;;;27.60;99.90;;;;;;4995451;28;20231;-74
2023/09/06 10:38:10;;;;;;;3.88;3.42;;;27.40;99.90;;;;;;4987700;28;20211;-74
2023/09/06 10:41:09;;;;;;;3.70;3.40;;;27.40;99.90;;;;;;4994816;28;20200;-74
2023/09/06 10:44:06;;;;;;;3.63;3.33;;;27.70;99.90;;;;;;4967857;28;20201;-74
2023/09/06 10:46:33;;;;;;;4.30;3.60;;;27.70;99.90;;;;;;4999283;28;20240;-74
2023/09/06 10:49:25;;;;;;;3.42;3.13;;;27.70;99.90;;;;;;4978186;28;20812;-73
2023/09/06 10:52:00;;;;;;;3.67;3.38;;;27.80;99.90;;;;;;4959418;28;20247;-73
2023/09/06 10:54:34;;;;;;;4.22;3.40;;;28.00;99.90;;;;;;5002051;28;20230;-72
2023/09/06 10:57:05;;;;;;;3.90;3.47;;;28.10;99.90;;;;;;4993309;28;20205;-72
2023/09/06 10:59:37;;;;;;;3.55;3.22;;;28.10;99.90;;;;;;4998920;28;20196;-72
2023/09/06 11:02:14;;;;;;;3.80;3.45;;;28.10;99.90;;;;;;4998219;28;20263;-72
2023/09/06 11:04:41;;;;;;;5.25;3.55;;;28.40;99.90;;;;;;4997410;28;20224;-72
2023/09/06 11:07:10;;;;;;;3.50;3.20;;;28.20;99.90;;;;;;4979589;28;20592;-72
2023/09/06 11:09:43;;;;;;;3.83;3.17;;;28.20;99.90;;;;;;4976714;28;20200;-72
2023/09/06 11:12:12;;;;;;;3.50;3.20;;;28.30;99.90;;;;;;4993494;28;20268;-72
2023/09/06 11:14:40;;;;;;;3.72;3.42;;;28.50;99.90;;;;;;4998149;28;20224;-72
2023/09/06 11:17:08;;;;;;;6.25;3.40;;;28.70;99.90;;;;;;5002212;28;20731;-72
2023/09/06 11:19:36;;;;;;;3.35;3.00;;;28.80;99.90;;;;;;4996712;28;20228;-72
2023/09/06 11:22:07;;;;;;;3.50;3.20;;;28.80;99.90;;;;;;4999583;28;20201;-72
2023/09/06 11:24:35;;;;;;;4.32;3.50;;;28.70;99.90;;;;;;4997996;28;20986;-71
2023/09/06 11:27:19;;;;;;;4.63;3.53;;;28.50;99.90;;;;;;4984627;28;20214;-71
2023/09/06 11:29:50;;;;;;;5.40;3.90;;;28.40;99.90;;;;;;4998438;28;20208;-71
2023/09/06 11:32:18;;;;;;;3.70;3.40;;;28.40;99.90;;;;;;5000417;28;20271;-71
2023/09/06 11:34:46;;;;;;;3.92;3.63;;;28.40;99.90;;;;;;5000766;28;20282;-71
2023/09/06 11:37:15;;;;;;;4.85;4.40;;;28.30;99.90;;;;;;4985463;28;20208;-71
2023/09/06 11:39:43;;;;;;;4.40;3.85;;;28.30;99.90;;;;;;5001710;28;20713;-71
2023/09/06 11:42:13;;;;;;;5.30;3.78;;;28.30;99.90;;;;;;5001216;28;20204;-71
2023/09/06 11:44:47;;;;;;;4.65;4.15;;;28.20;99.90;;;;;;4982559;28;20259;-71
2023/09/06 11:47:16;;;;;;;4.32;3.92;;;28.20;99.90;;;;;;4999081;28;20288;-71
2023/09/06 11:49:45;;;;;;;3.78;3.47;;;28.30;99.90;;;;;;5003291;28;20236;-71
2023/09/06 11:52:16;;;;;;;3.92;3.40;;;28.50;99.90;;;;;;5003727;28;20487;-71
2023/09/06 11:54:44;;;;;;;3.50;3.20;;;28.40;99.90;;;;;;4998448;28;20232;-71
2023/09/06 11:57:21;;;;;;;3.47;3.17;;;28.40;99.90;;;;;;4999990;28;20231;-71
2023/09/06 11:59:52;;;;;;;3.50;3.20;;;28.90;99.90;;;;;;5002243;28;20235;-70
2023/09/06 12:02:21;;;;;;;5.10;3.22;;;29.30;99.90;;;;;;4978328;28;20197;-71
2023/09/06 12:05:02;;;;;;;4.05;3.47;;;29.40;99.90;;;;;;4999637;28;20238;-71
2023/09/06 12:07:31;;;;;;;3.50;3.20;;;29.20;99.90;;;;;;5000300;28;20212;-71
2023/09/06 12:09:58;;;;;;;3.45;3.15;;;29.20;99.90;;;;;;4983164;28;20200;-71
2023/09/06 12:12:26;;;;;;;3.55;2.90;;;29.10;99.90;;;;;;4998301;28;20248;-71
2023/09/06 12:14:53;;;;;;;2.72;2.53;;;29.00;99.90;;;;;;4997461;28;20254;-71
2023/09/06 12:17:22;;;;;;;3.40;3.10;;;29.00;99.90;;;;;;4999677;28;20320;-71
2023/09/06 12:19:59;;;;;;;2.88;2.67;;;29.20;99.90;;;;;;4999638;28;20262;-71
2023/09/06 12:22:26;;;;;;;3.03;2.80;;;29.40;99.90;;;;;;5001871;28;20200;-71
2023/09/06 12:24:55;;;;;;;4.82;2.80;;;29.40;99.90;;;;;;4995627;28;20278;-72
2023/09/06 12:27:24;;;;;;;3.53;2.50;;;29.30;99.90;;;;;;5004070;28;20212;-71
2023/09/06 12:29:51;;;;;;;2.80;2.60;;;29.40;99.90;;;;;;4979827;28;20217;-71
2023/09/06 12:32:21;;;;;;;3.47;3.03;;;29.50;99.90;;;;;;4996814;28;20208;-71
2023/09/06 12:34:50;;;;;;;3.70;3.13;;;29.50;99.90;;;;;;4999803;28;20227;-71
2023/09/06 12:37:17;;;;;;;3.83;3.05;;;29.30;99.90;;;;;;5002473;28;20203;-71
2023/09/06 12:39:44;;;;;;;3.30;3.00;;;29.30;99.90;;;;;;4997571;28;20208;-71
2023/09/06 12:42:11;;;;;;;4.63;3.00;;;29.30;99.90;;;;;;4998681;28;20231;-71
2023/09/06 12:44:38;;;;;;;2.97;2.70;;;29.30;99.90;;;;;;4997790;28;20216;-71
2023/09/06 12:47:16;;;;;;;3.20;3.00;;;29.30;99.90;;;;;;4998129;28;20255;-71
2023/09/06 12:49:43;;;;;;;3.22;2.95;;;29.20;99.90;;;;;;4996506;28;20204;-71
2023/09/06 12:52:16;;;;;;;3.40;3.10;;;29.20;99.90;;;;;;4986168;28;20346;-71
2023/09/06 12:54:43;;;;;;;3.53;3.03;;;29.20;99.90;;;;;;4999977;28;20223;-72
2023/09/06 12:57:09;;;;;;;4.85;2.90;;;29.10;99.90;;;;;;5002181;28;20224;-72
2023/09/06 12:59:39;;;;;;;7.72;2.90;;;29.30;99.90;;;;;;5001158;28;20208;-71